createdAt,value
2023-03-29T00:01:10.271Z,4.13
2023-03-29T00:03:39.762Z,4.03
2023-03-29T00:06:10.348Z,4.80
2023-03-29T00:08:39.188Z,4.47
2023-03-29T00:11:07.729Z,4.95
2023-03-29T00:13:36.295Z,4.80
2023-03-29T00:16:04.822Z,4.90
2023-03-29T00:18:33.255Z,4.65
2023-03-29T00:21:02.306Z,6.15
2023-03-29T00:23:32.503Z,6.25
2023-03-29T00:26:05.872Z,4.28
2023-03-29T00:28:35.810Z,4.88
2023-03-29T00:31:09.738Z,6.10
2023-03-29T00:33:38.648Z,4.97
2023-03-29T00:36:08.894Z,4.95
2023-03-29T00:38:39.087Z,4.95
2023-03-29T00:41:10.729Z,4.60
2023-03-29T00:43:59.629Z,4.60
2023-03-29T00:46:30.055Z,4.20
2023-03-29T00:49:02.171Z,5.90
2023-03-29T00:51:34.355Z,5.05
2023-03-29T00:54:09.452Z,4.32
2023-03-29T00:56:41.721Z,6.07
2023-03-29T00:59:15.776Z,7.25
2023-03-29T01:01:50.610Z,6.22
2023-03-29T01:04:25.228Z,8.45
2023-03-29T01:06:58.494Z,7.80
2023-03-29T01:09:30.542Z,9.15
2023-03-29T01:12:03.037Z,5.15
2023-03-29T01:14:38.557Z,4.75
2023-03-29T01:17:07.898Z,6.43
2023-03-29T01:19:41.801Z,10.30
2023-03-29T01:22:22.644Z,10.10
2023-03-29T01:25:04.310Z,12.38
2023-03-29T01:27:48.832Z,10.02
2023-03-29T01:30:20.792Z,6.47
2023-03-29T01:32:55.669Z,5.45
2023-03-29T01:35:32.696Z,7.20
2023-03-29T01:38:07.414Z,7.03
2023-03-29T01:40:36.119Z,7.65
2023-03-29T01:43:17.680Z,7.40
2023-03-29T01:45:51.433Z,5.53
2023-03-29T01:48:26.978Z,6.18
2023-03-29T01:51:00.348Z,7.68
2023-03-29T01:53:34.132Z,8.13
2023-03-29T01:56:09.412Z,9.45
2023-03-29T01:58:43.606Z,7.22
2023-03-29T02:01:17.760Z,8.88
2023-03-29T02:03:50.920Z,6.57
2023-03-29T02:06:23.870Z,5.50
2023-03-29T02:08:54.532Z,5.15
2023-03-29T02:11:24.624Z,4.60
2023-03-29T02:13:54.707Z,5.68
2023-03-29T02:16:23.307Z,5.03
2023-03-29T02:18:56.409Z,5.18
2023-03-29T02:21:29.184Z,5.80
2023-03-29T02:24:02.421Z,5.65
2023-03-29T02:26:31.012Z,5.93
2023-03-29T02:29:00.990Z,5.78
2023-03-29T02:31:32.769Z,5.47
2023-03-29T02:34:08.967Z,6.25
2023-03-29T02:36:42.110Z,6.32
2023-03-29T02:39:15.718Z,6.18
2023-03-29T02:41:45.926Z,5.65
2023-03-29T02:44:19.740Z,8.43
2023-03-29T02:46:51.232Z,5.60
2023-03-29T02:49:20.065Z,5.65
2023-03-29T02:51:52.795Z,6.50
2023-03-29T02:54:26.021Z,5.13
2023-03-29T02:57:00.409Z,5.57
2023-03-29T02:59:31.415Z,6.90
2023-03-29T03:02:00.145Z,5.80
2023-03-29T03:04:29.793Z,5.38
2023-03-29T03:06:58.230Z,6.60
2023-03-29T03:09:27.545Z,5.55
2023-03-29T03:11:56.284Z,5.55
2023-03-29T03:14:28.332Z,5.57
2023-03-29T03:17:03.933Z,5.53
2023-03-29T03:19:33.938Z,5.00
2023-03-29T03:22:02.426Z,4.68
2023-03-29T03:24:32.699Z,4.65
2023-03-29T03:27:02.477Z,4.00
2023-03-29T03:29:31.040Z,4.85
2023-03-29T03:32:14.380Z,5.00
2023-03-29T03:35:01.788Z,4.10
2023-03-29T03:37:31.369Z,4.35
2023-03-29T03:40:00.179Z,3.92
2023-03-29T03:42:31.746Z,4.15
2023-03-29T03:45:00.608Z,4.32
2023-03-29T03:47:40.012Z,5.63
2023-03-29T03:50:35.146Z,5.32
2023-03-29T03:53:04.105Z,5.32
2023-03-29T03:55:54.365Z,4.57
2023-03-29T03:58:28.708Z,4.00
2023-03-29T04:00:59.291Z,4.03
2023-03-29T04:03:41.163Z,4.00
2023-03-29T04:06:13.983Z,4.18
2023-03-29T04:09:04.881Z,5.63
2023-03-29T04:11:38.518Z,5.85
2023-03-29T04:14:08.312Z,5.60
2023-03-29T04:16:57.270Z,7.43
2023-03-29T04:19:48.640Z,7.18
2023-03-29T04:22:17.223Z,6.60
2023-03-29T04:24:47.175Z,7.60
2023-03-29T04:30:14.621Z,6.40
2023-03-29T04:33:01.734Z,4.85
2023-03-29T04:35:33.598Z,4.78
2023-03-29T04:38:04.546Z,6.25
2023-03-29T04:40:34.629Z,6.03
2023-03-29T04:43:30.250Z,7.05
2023-03-29T04:46:11.323Z,5.72
2023-03-29T04:49:05.962Z,6.47
2023-03-29T04:51:50.799Z,4.35
2023-03-29T04:54:22.896Z,3.33
2023-03-29T04:57:13.203Z,3.95
2023-03-29T04:59:56.958Z,4.03
2023-03-29T05:02:45.684Z,3.95
2023-03-29T05:05:15.562Z,4.70
2023-03-29T05:07:47.201Z,4.18
2023-03-29T05:10:19.277Z,3.13
2023-03-29T05:12:54.193Z,4.00
2023-03-29T05:15:24.262Z,3.92
2023-03-29T05:17:53.128Z,3.15
2023-03-29T05:20:23.132Z,4.72
2023-03-29T05:23:10.853Z,4.05
2023-03-29T05:26:02.751Z,4.78
2023-03-29T05:28:31.465Z,5.70
2023-03-29T05:31:04.892Z,4.07
2023-03-29T05:33:38.285Z,5.45
2023-03-29T05:36:11.232Z,5.72
2023-03-29T05:38:46.790Z,6.78
2023-03-29T05:41:18.163Z,5.07
2023-03-29T05:44:19.490Z,5.20
2023-03-29T05:46:53.423Z,5.03
2023-03-29T05:49:27.510Z,5.90
2023-03-29T05:52:10.582Z,8.05
2023-03-29T05:54:41.596Z,6.60
2023-03-29T05:57:13.935Z,9.10
2023-03-29T05:59:44.152Z,9.98
2023-03-29T06:02:15.603Z,9.57
2023-03-29T06:04:49.431Z,7.85
2023-03-29T06:07:27.000Z,7.50
2023-03-29T06:10:18.095Z,6.28
2023-03-29T06:12:51.122Z,7.30
2023-03-29T06:15:24.305Z,7.47
2023-03-29T06:17:57.434Z,5.35
2023-03-29T06:20:27.445Z,4.95
2023-03-29T06:23:03.359Z,4.20
2023-03-29T06:25:34.539Z,4.35
2023-03-29T06:28:04.819Z,3.55
2023-03-29T06:30:35.388Z,15.98
2023-03-29T06:33:04.290Z,5.45
2023-03-29T06:35:52.262Z,7.88
2023-03-29T06:38:28.198Z,7.93
2023-03-29T06:41:05.555Z,9.13
2023-03-29T06:43:52.541Z,5.80
2023-03-29T06:46:24.523Z,4.05
2023-03-29T06:51:33.816Z,4.80
2023-03-29T06:54:04.248Z,5.20
2023-03-29T06:56:34.890Z,5.78
2023-03-29T06:59:10.650Z,8.15
2023-03-29T07:01:57.160Z,4.80
2023-03-29T07:04:47.864Z,19.08
2023-03-29T07:07:53.421Z,8.80
2023-03-29T07:10:33.512Z,5.95
2023-03-29T07:13:35.702Z,12.38
2023-03-29T07:16:12.549Z,4.75
2023-03-29T07:18:49.748Z,6.47
2023-03-29T07:21:33.677Z,4.85
2023-03-29T07:24:04.791Z,6.88
2023-03-29T07:26:33.520Z,4.63
2023-03-29T07:29:03.342Z,6.18
2023-03-29T07:31:33.152Z,7.18
2023-03-29T07:34:21.579Z,5.03
2023-03-29T07:36:50.416Z,7.05
2023-03-29T07:39:18.988Z,5.13
2023-03-29T07:42:03.677Z,4.53
2023-03-29T07:44:33.918Z,4.38
2023-03-29T07:47:04.586Z,4.15
2023-03-29T07:49:34.094Z,4.57
2023-03-29T07:52:03.868Z,5.78
2023-03-29T07:54:33.217Z,6.18
2023-03-29T07:57:16.840Z,4.93
2023-03-29T07:59:54.132Z,5.80
2023-03-29T08:02:29.315Z,6.00
2023-03-29T08:05:03.447Z,9.48
2023-03-29T08:07:32.267Z,4.75
2023-03-29T08:10:21.360Z,4.63
2023-03-29T08:13:01.066Z,4.93
2023-03-29T08:15:42.223Z,4.90
2023-03-29T08:18:20.699Z,4.93
2023-03-29T08:20:50.314Z,5.10
2023-03-29T08:23:18.855Z,5.50
2023-03-29T08:26:14.306Z,4.65
2023-03-29T08:28:43.286Z,4.13
2023-03-29T08:31:13.933Z,3.60
2023-03-29T08:36:57.413Z,4.28
2023-03-29T08:39:33.983Z,4.10
2023-03-29T08:42:56.857Z,4.18
2023-03-29T08:45:39.068Z,5.53
2023-03-29T08:48:19.890Z,3.95
2023-03-29T08:50:54.384Z,3.42
2023-03-29T08:53:28.737Z,3.78
2023-03-29T08:56:25.064Z,4.97
2023-03-29T08:59:22.324Z,3.55
2023-03-29T09:01:55.106Z,4.80
2023-03-29T09:04:30.939Z,5.07
2023-03-29T09:07:10.420Z,4.55
2023-03-29T09:09:44.332Z,3.10
2023-03-29T09:12:35.814Z,3.30
2023-03-29T09:15:12.949Z,4.05
2023-03-29T09:17:56.810Z,3.10
2023-03-29T09:20:40.042Z,4.40
2023-03-29T09:23:21.213Z,4.00
2023-03-29T09:26:19.944Z,3.08
2023-03-29T09:29:19.283Z,3.08
2023-03-29T09:31:49.752Z,2.97
2023-03-29T09:34:24.124Z,3.33
2023-03-29T09:37:05.179Z,3.83
2023-03-29T09:39:33.776Z,3.22
2023-03-29T09:42:12.013Z,3.80
2023-03-29T09:44:47.016Z,3.80
2023-03-29T09:47:26.600Z,3.95
2023-03-29T09:50:09.889Z,4.25
2023-03-29T09:52:44.152Z,4.15
2023-03-29T09:55:23.802Z,4.75
2023-03-29T09:58:04.224Z,3.45
2023-03-29T10:00:38.020Z,4.28
2023-03-29T10:03:08.063Z,5.30
2023-03-29T10:05:51.761Z,4.93
2023-03-29T10:08:25.024Z,4.50
2023-03-29T10:10:54.470Z,4.65
2023-03-29T10:13:30.790Z,4.60
2023-03-29T10:16:02.773Z,4.10
2023-03-29T10:18:32.778Z,3.25
2023-03-29T10:21:03.072Z,3.42
2023-03-29T10:23:34.345Z,5.28
2023-03-29T10:26:05.478Z,4.32
2023-03-29T10:28:36.461Z,4.70
2023-03-29T10:31:08.289Z,4.30
2023-03-29T10:33:37.861Z,4.15
2023-03-29T10:36:09.764Z,5.07
2023-03-29T10:38:39.850Z,4.97
2023-03-29T10:41:12.725Z,4.68
2023-03-29T10:43:45.530Z,3.63
2023-03-29T10:46:21.441Z,4.30
2023-03-29T10:48:51.601Z,4.57
2023-03-29T10:51:20.783Z,6.95
2023-03-29T10:53:50.901Z,4.00
2023-03-29T10:56:40.298Z,4.38
2023-03-29T10:59:25.630Z,4.00
2023-03-29T11:02:09.498Z,4.03
2023-03-29T11:04:44.128Z,4.72
2023-03-29T11:07:28.242Z,3.90
2023-03-29T11:10:07.213Z,5.20
2023-03-29T11:12:42.052Z,3.83
2023-03-29T11:15:24.531Z,3.60
2023-03-29T11:18:03.407Z,4.60
2023-03-29T11:20:42.746Z,3.90
2023-03-29T11:23:25.670Z,4.00
2023-03-29T11:26:07.988Z,3.88
2023-03-29T11:28:43.834Z,3.88
2023-03-29T11:31:21.625Z,4.40
2023-03-29T11:33:59.388Z,3.72
2023-03-29T11:36:39.030Z,3.40
2023-03-29T11:39:17.379Z,4.00
2023-03-29T11:41:54.090Z,4.28
2023-03-29T11:44:25.898Z,3.50
2023-03-29T11:47:00.571Z,3.35
2023-03-29T11:49:33.577Z,5.13
2023-03-29T11:52:07.566Z,4.75
2023-03-29T11:54:42.462Z,3.30
2023-03-29T11:57:19.625Z,7.45
2023-03-29T11:59:59.066Z,4.63
2023-03-29T12:02:34.262Z,3.45
2023-03-29T12:05:11.465Z,4.32
2023-03-29T12:07:46.946Z,4.57
2023-03-29T12:10:21.940Z,4.47
2023-03-29T12:12:58.762Z,3.55
2023-03-29T12:15:31.806Z,4.35
2023-03-29T12:18:07.223Z,3.90
2023-03-29T12:20:40.143Z,4.13
2023-03-29T12:23:16.085Z,4.10
2023-03-29T12:25:53.708Z,4.20
2023-03-29T12:28:51.115Z,4.18
2023-03-29T12:31:26.862Z,3.80
2023-03-29T12:34:14.952Z,3.70
2023-03-29T12:37:25.797Z,3.08
2023-03-29T12:40:41.928Z,3.40
2023-03-29T12:43:33.551Z,3.70
2023-03-29T12:46:24.390Z,3.92
2023-03-29T12:48:57.483Z,3.25
2023-03-29T12:51:31.915Z,3.40
2023-03-29T12:54:08.616Z,4.60
2023-03-29T12:56:41.897Z,3.47
2023-03-29T12:59:27.890Z,4.05
2023-03-29T13:02:04.453Z,3.80
2023-03-29T13:04:39.872Z,3.47
2023-03-29T13:07:15.899Z,3.95
2023-03-29T13:09:53.009Z,3.75
2023-03-29T13:12:27.231Z,3.40
2023-03-29T13:15:01.131Z,6.38
2023-03-29T13:17:38.154Z,4.20
2023-03-29T13:20:20.051Z,3.95
2023-03-29T13:23:01.754Z,3.83
2023-03-29T13:25:47.771Z,4.45
2023-03-29T13:28:24.465Z,3.67
2023-03-29T13:31:01.176Z,4.18
2023-03-29T13:33:54.794Z,4.10
2023-03-29T13:36:35.021Z,3.80
2023-03-29T13:39:08.008Z,4.10
2023-03-29T13:41:52.160Z,4.30
2023-03-29T13:44:41.432Z,4.47
2023-03-29T13:47:29.763Z,3.40
2023-03-29T13:50:02.181Z,5.05
2023-03-29T13:52:36.760Z,4.00
2023-03-29T13:55:10.538Z,4.43
2023-03-29T13:57:42.671Z,5.13
2023-03-29T14:00:18.272Z,7.35
2023-03-29T14:02:52.972Z,6.07
2023-03-29T14:05:27.391Z,4.40
2023-03-29T14:07:57.039Z,4.90
2023-03-29T14:10:28.424Z,4.30
2023-03-29T14:12:57.608Z,4.90
2023-03-29T14:15:29.375Z,5.50
2023-03-29T14:18:00.714Z,4.90
2023-03-29T14:20:32.039Z,5.18
2023-03-29T14:23:00.714Z,4.95
2023-03-29T14:25:31.198Z,4.13
2023-03-29T14:27:59.662Z,4.53
2023-03-29T14:30:31.965Z,5.28
2023-03-29T14:33:05.310Z,5.47
2023-03-29T14:35:34.756Z,4.75
2023-03-29T14:38:04.451Z,5.30
2023-03-29T14:40:34.618Z,5.60
2023-03-29T14:43:10.061Z,5.50
2023-03-29T14:45:39.033Z,4.95
2023-03-29T14:48:13.386Z,4.68
2023-03-29T14:50:42.738Z,4.38
2023-03-29T14:53:19.480Z,4.68
2023-03-29T14:55:51.827Z,4.78
2023-03-29T14:58:23.779Z,3.88
2023-03-29T15:00:53.160Z,3.90
2023-03-29T15:03:26.513Z,4.18
2023-03-29T15:05:58.951Z,4.78
2023-03-29T15:08:33.778Z,3.95
2023-03-29T15:11:03.054Z,4.70
2023-03-29T15:13:32.101Z,3.92
2023-03-29T15:16:05.924Z,3.78
2023-03-29T15:18:40.797Z,4.20
2023-03-29T15:21:11.541Z,4.60
2023-03-29T15:23:42.756Z,4.63
2023-03-29T15:26:15.952Z,4.38
2023-03-29T15:28:50.524Z,4.47
2023-03-29T15:31:23.628Z,4.80
2023-03-29T15:34:06.933Z,3.53
2023-03-29T15:36:42.614Z,3.72
2023-03-29T15:39:13.896Z,4.28
2023-03-29T15:41:42.599Z,4.40
2023-03-29T15:44:11.854Z,4.70
2023-03-29T15:46:40.388Z,4.22
2023-03-29T15:49:12.467Z,5.65
2023-03-29T15:51:41.878Z,10.25
2023-03-29T15:54:10.641Z,6.47
2023-03-29T15:56:45.682Z,4.47
2023-03-29T15:59:14.223Z,4.13
2023-03-29T16:01:43.045Z,4.60
2023-03-29T16:04:15.227Z,4.63
2023-03-29T16:06:44.544Z,5.38
2023-03-29T16:09:13.134Z,4.90
2023-03-29T16:11:42.845Z,4.95
2023-03-29T16:14:23.163Z,5.72
2023-03-29T16:16:52.176Z,5.10
2023-03-29T16:19:22.106Z,4.82
2023-03-29T16:21:50.994Z,4.63
2023-03-29T16:24:21.351Z,5.03
2023-03-29T16:26:55.170Z,5.32
2023-03-29T16:29:24.969Z,5.82
2023-03-29T16:31:54.009Z,4.97
2023-03-29T16:34:24.544Z,6.55
2023-03-29T16:36:55.083Z,6.60
2023-03-29T16:39:23.502Z,6.45
2023-03-29T16:41:51.890Z,6.03
2023-03-29T16:44:24.433Z,5.75
2023-03-29T16:46:54.454Z,5.85
2023-03-29T16:49:24.687Z,5.65
2023-03-29T16:51:53.217Z,6.05
2023-03-29T16:54:21.584Z,6.20
2023-03-29T16:56:50.069Z,5.93
2023-03-29T16:59:18.502Z,6.50
2023-03-29T17:01:47.065Z,6.65
2023-03-29T17:04:15.689Z,6.30
2023-03-29T17:06:45.702Z,6.20
2023-03-29T17:09:14.154Z,6.97
2023-03-29T17:11:42.648Z,7.07
2023-03-29T17:14:11.437Z,8.57
2023-03-29T17:16:39.895Z,7.43
2023-03-29T17:19:08.433Z,6.55
2023-03-29T17:21:36.873Z,7.93
2023-03-29T17:24:07.384Z,7.35
2023-03-29T17:26:36.048Z,8.13
2023-03-29T17:29:04.493Z,7.75
2023-03-29T17:31:34.923Z,8.68
2023-03-29T17:34:03.570Z,8.65
2023-03-29T17:36:33.874Z,8.70
2023-03-29T17:39:03.018Z,7.68
2023-03-29T17:41:32.955Z,10.05
2023-03-29T17:44:01.373Z,8.73
2023-03-29T17:46:30.322Z,10.05
2023-03-29T17:49:00.392Z,11.52
2023-03-29T17:51:28.956Z,9.00
2023-03-29T17:53:58.354Z,11.23
2023-03-29T17:56:27.572Z,9.40
2023-03-29T17:58:57.442Z,11.73
2023-03-29T18:01:26.044Z,9.88
2023-03-29T18:03:54.614Z,9.85
2023-03-29T18:06:23.033Z,11.48
2023-03-29T18:08:53.249Z,9.48
2023-03-29T18:11:24.850Z,9.18
2023-03-29T18:13:54.426Z,9.30
2023-03-29T18:16:24.577Z,9.98
2023-03-29T18:18:53.070Z,9.40
2023-03-29T18:21:22.126Z,10.07
2023-03-29T18:23:52.904Z,14.98
2023-03-29T18:26:23.592Z,10.80
2023-03-29T18:28:52.556Z,9.48
2023-03-29T18:31:23.612Z,12.80
2023-03-29T18:33:53.353Z,10.40
2023-03-29T18:36:25.359Z,9.50
2023-03-29T18:38:55.926Z,9.43
2023-03-29T18:41:25.036Z,9.82
2023-03-29T18:43:57.551Z,9.80
2023-03-29T18:46:31.263Z,10.15
2023-03-29T18:49:03.869Z,9.93
2023-03-29T18:51:33.083Z,10.27
2023-03-29T18:54:04.278Z,9.57
2023-03-29T18:56:32.999Z,11.52
2023-03-29T18:59:05.208Z,10.27
2023-03-29T19:01:35.197Z,11.63
2023-03-29T19:04:03.768Z,10.98
2023-03-29T19:06:32.964Z,18.67
2023-03-29T19:09:04.318Z,45.80
2023-03-29T19:11:33.460Z,11.15
2023-03-29T19:14:02.490Z,12.43
2023-03-29T19:16:31.041Z,10.90
2023-03-29T19:19:02.492Z,11.75
2023-03-29T19:21:33.125Z,10.80
2023-03-29T19:24:05.110Z,9.45
2023-03-29T19:26:34.420Z,10.18
2023-03-29T19:29:03.154Z,9.90
2023-03-29T19:31:34.237Z,9.93
2023-03-29T19:34:07.147Z,9.80
2023-03-29T19:36:36.045Z,9.50
2023-03-29T19:39:05.162Z,9.82
2023-03-29T19:41:34.211Z,10.13
2023-03-29T19:44:02.721Z,9.70
2023-03-29T19:46:31.286Z,11.27
2023-03-29T19:49:00.641Z,8.80
2023-03-29T19:51:30.959Z,10.70
2023-03-29T19:53:59.737Z,10.10
2023-03-29T19:56:28.543Z,10.27
2023-03-29T19:58:57.003Z,10.07
2023-03-29T20:01:27.297Z,11.00
2023-03-29T20:03:55.977Z,10.55
2023-03-29T20:06:24.760Z,10.23
2023-03-29T20:08:56.613Z,10.98
2023-03-29T20:11:25.136Z,10.50
2023-03-29T20:13:53.685Z,10.60
2023-03-29T20:16:24.497Z,10.50
2023-03-29T20:18:54.131Z,10.75
2023-03-29T20:21:23.231Z,10.57
2023-03-29T20:23:51.899Z,10.52
2023-03-29T20:26:24.468Z,11.60
2023-03-29T20:28:53.271Z,11.25
2023-03-29T20:31:22.608Z,10.93
2023-03-29T20:33:53.689Z,10.63
2023-03-29T20:36:23.391Z,11.05
2023-03-29T20:38:56.903Z,10.50
2023-03-29T20:41:30.371Z,11.55
2023-03-29T20:44:03.292Z,16.90
2023-03-29T20:46:34.381Z,12.48
2023-03-29T20:49:04.664Z,11.13
2023-03-29T20:51:33.513Z,10.65
2023-03-29T20:54:05.660Z,11.05
2023-03-29T20:56:39.910Z,12.57
2023-03-29T20:59:10.752Z,10.50
2023-03-29T21:01:41.204Z,11.27
2023-03-29T21:04:11.125Z,11.88
2023-03-29T21:06:40.500Z,10.90
2023-03-29T21:09:09.085Z,10.43
2023-03-29T21:11:39.313Z,12.93
2023-03-29T21:14:07.677Z,11.23
2023-03-29T21:16:36.138Z,11.18
2023-03-29T21:19:04.636Z,12.93
2023-03-29T21:21:33.753Z,12.30
2023-03-29T21:24:02.339Z,10.85
2023-03-29T21:26:31.071Z,12.15
2023-03-29T21:29:00.943Z,11.15
2023-03-29T21:31:29.530Z,21.23
2023-03-29T21:33:58.154Z,19.33
2023-03-29T21:36:27.184Z,10.23
2023-03-29T21:38:55.669Z,10.40
2023-03-29T21:41:24.319Z,11.20
2023-03-29T21:43:52.705Z,12.18
2023-03-29T21:46:26.055Z,11.32
2023-03-29T21:48:54.706Z,11.52
2023-03-29T21:51:30.149Z,12.15
2023-03-29T21:54:18.223Z,11.27
2023-03-29T21:56:51.386Z,12.02
2023-03-29T21:59:20.946Z,11.60
2023-03-29T22:01:51.981Z,12.00
2023-03-29T22:04:33.590Z,12.70
2023-03-29T22:07:06.683Z,11.77
2023-03-29T22:09:37.603Z,12.68
2023-03-29T22:12:06.873Z,11.38
2023-03-29T22:14:38.092Z,11.35
2023-03-29T22:17:09.507Z,11.02
2023-03-29T22:19:43.624Z,11.77
2023-03-29T22:22:16.436Z,11.73
2023-03-29T22:24:44.976Z,11.68
2023-03-29T22:27:13.680Z,12.10
2023-03-29T22:29:42.193Z,11.80
2023-03-29T22:32:15.889Z,12.38
2023-03-29T22:34:44.535Z,12.13
2023-03-29T22:37:13.009Z,11.82
2023-03-29T22:39:41.569Z,12.23
2023-03-29T22:42:10.145Z,11.70
2023-03-29T22:44:38.568Z,11.23
2023-03-29T22:47:07.503Z,11.43
2023-03-29T22:49:38.058Z,11.20
2023-03-29T22:52:06.916Z,12.43
2023-03-29T22:54:35.508Z,11.52
2023-03-29T22:57:04.041Z,12.27
2023-03-29T22:59:32.541Z,12.88
2023-03-29T23:02:01.752Z,14.77
2023-03-29T23:04:30.259Z,14.27
2023-03-29T23:07:00.443Z,13.07
2023-03-29T23:09:28.987Z,13.32
2023-03-29T23:11:57.452Z,13.88
2023-03-29T23:14:25.983Z,14.13
2023-03-29T23:16:54.543Z,13.32
2023-03-29T23:19:23.138Z,12.75
2023-03-29T23:21:52.861Z,13.02
2023-03-29T23:24:22.979Z,13.30
2023-03-29T23:26:51.605Z,12.93
2023-03-29T23:29:20.311Z,12.63
2023-03-29T23:31:49.382Z,11.98
2023-03-29T23:34:19.906Z,11.55
2023-03-29T23:36:48.305Z,10.43
2023-03-29T23:39:16.754Z,9.93
2023-03-29T23:41:46.584Z,10.30
2023-03-29T23:44:15.050Z,10.98
2023-03-29T23:46:43.592Z,10.23
2023-03-29T23:49:12.379Z,10.27
2023-03-29T23:51:42.778Z,9.30
2023-03-29T23:54:12.093Z,8.88
2023-03-29T23:56:40.550Z,8.88
2023-03-29T23:59:10.825Z,9.48
